createdAt,value
2018-07-11T00:00:44.150Z,20.80
2018-07-11T00:03:12.458Z,19.54
2018-07-11T00:05:40.778Z,18.50
2018-07-11T00:08:09.071Z,18.54
2018-07-11T00:10:37.388Z,22.32
2018-07-11T00:13:05.694Z,18.38
2018-07-11T00:15:34.022Z,22.24
2018-07-11T00:18:02.320Z,25.22
2018-07-11T00:20:30.614Z,18.82
2018-07-11T00:22:58.930Z,19.88
2018-07-11T00:25:27.234Z,21.72
2018-07-11T00:27:55.555Z,19.92
2018-07-11T00:30:23.854Z,20.74
2018-07-11T00:32:52.170Z,19.84
2018-07-11T00:35:20.470Z,19.56
2018-07-11T00:37:48.781Z,16.32
2018-07-11T00:40:17.078Z,17.06
2018-07-11T00:42:45.398Z,21.68
2018-07-11T00:45:13.698Z,15.32
2018-07-11T00:47:42.025Z,19.76
2018-07-11T00:50:10.326Z,22.36
2018-07-11T00:52:38.643Z,15.66
2018-07-11T00:55:06.935Z,16.40
2018-07-11T00:57:35.259Z,19.98
2018-07-11T01:00:03.559Z,15.24
2018-07-11T01:02:31.869Z,17.96
2018-07-11T01:04:59.396Z,16.86
2018-07-11T01:07:27.711Z,16.84
2018-07-11T01:09:56.002Z,22.76
2018-07-11T01:12:24.322Z,22.34
2018-07-11T01:14:52.619Z,14.04
2018-07-11T01:17:20.935Z,15.68
2018-07-11T01:19:49.226Z,16.52
2018-07-11T01:22:17.545Z,14.74
2018-07-11T01:24:45.841Z,15.08
2018-07-11T01:27:14.159Z,17.22
2018-07-11T01:29:42.454Z,31.42
2018-07-11T01:32:10.783Z,36.38
2018-07-11T01:34:39.086Z,43.62
2018-07-11T01:37:07.402Z,48.54
2018-07-11T01:39:35.700Z,56.24
2018-07-11T01:42:04.018Z,33.12
2018-07-11T01:44:31.546Z,23.22
2018-07-11T01:46:59.871Z,33.94
2018-07-11T01:49:28.167Z,22.34
2018-07-11T01:55:06.230Z,45.45
2018-07-11T01:57:34.551Z,31.08
2018-07-11T02:00:02.850Z,31.04
2018-07-11T02:02:31.162Z,25.64
2018-07-11T02:04:59.463Z,19.20
2018-07-11T02:07:27.782Z,21.08
2018-07-11T02:09:56.074Z,23.44
2018-07-11T02:12:24.406Z,21.68
2018-07-11T02:14:52.707Z,18.38
2018-07-11T02:17:21.031Z,25.92
2018-07-11T02:19:49.330Z,16.24
2018-07-11T02:22:17.648Z,23.74
2018-07-11T02:24:45.946Z,24.44
2018-07-11T02:27:14.266Z,19.90
2018-07-11T02:29:42.570Z,17.68
2018-07-11T02:32:10.887Z,17.78
2018-07-11T02:34:39.198Z,17.84
2018-07-11T02:37:07.523Z,18.24
2018-07-11T02:39:35.821Z,17.90
2018-07-11T02:42:04.139Z,15.94
2018-07-11T02:44:32.434Z,15.84
2018-07-11T02:47:00.751Z,16.74
2018-07-11T02:49:29.058Z,19.26
2018-07-11T02:51:57.362Z,15.02
2018-07-11T02:54:25.685Z,19.14
2018-07-11T02:56:53.984Z,20.52
2018-07-11T02:59:22.315Z,14.46
2018-07-11T03:01:50.617Z,14.30
2018-07-11T03:04:18.938Z,12.58
2018-07-11T03:06:47.243Z,17.58
2018-07-11T03:09:15.570Z,22.08
2018-07-11T03:11:43.865Z,15.38
2018-07-11T03:14:12.186Z,13.52
2018-07-11T03:16:40.478Z,18.70
2018-07-11T03:19:08.798Z,14.12
2018-07-11T03:21:37.101Z,14.96
2018-07-11T03:24:05.419Z,17.60
2018-07-11T03:26:32.945Z,19.48
2018-07-11T03:29:01.262Z,17.16
2018-07-11T03:31:29.567Z,14.76
2018-07-11T03:33:57.882Z,15.44
2018-07-11T03:36:26.175Z,17.02
2018-07-11T03:38:54.490Z,16.20
2018-07-11T03:41:22.786Z,16.72
2018-07-11T03:43:51.105Z,16.14
2018-07-11T03:46:19.398Z,18.06
2018-07-11T03:48:47.714Z,16.48
2018-07-11T03:51:16.010Z,16.70
2018-07-11T03:53:44.387Z,16.74
2018-07-11T03:56:12.654Z,18.92
2018-07-11T03:58:40.966Z,19.70
2018-07-11T04:01:09.266Z,16.08
2018-07-11T04:03:37.587Z,18.76
2018-07-11T04:06:05.878Z,21.74
2018-07-11T04:08:34.198Z,19.16
2018-07-11T04:11:02.497Z,14.86
2018-07-11T04:13:30.814Z,17.28
2018-07-11T04:15:59.114Z,16.46
2018-07-11T04:18:27.444Z,20.52
2018-07-11T04:20:55.742Z,18.90
2018-07-11T04:23:24.061Z,19.72
2018-07-11T04:25:52.357Z,22.16
2018-07-11T04:28:20.674Z,16.88
2018-07-11T04:30:48.979Z,19.44
2018-07-11T04:33:17.321Z,19.02
2018-07-11T04:35:45.616Z,15.74
2018-07-11T04:38:13.937Z,20.22
2018-07-11T04:40:42.233Z,20.54
2018-07-11T04:43:10.550Z,21.22
2018-07-11T04:45:38.845Z,19.00
2018-07-11T04:48:07.167Z,15.80
2018-07-11T04:50:35.498Z,20.16
2018-07-11T04:53:03.811Z,20.14
2018-07-11T04:55:32.129Z,19.94
2018-07-11T04:58:00.430Z,19.50
2018-07-11T05:00:28.763Z,22.42
2018-07-11T05:02:57.069Z,19.84
2018-07-11T05:05:25.388Z,18.76
2018-07-11T05:07:53.685Z,24.10
2018-07-11T05:10:22.008Z,25.62
2018-07-11T05:12:50.307Z,17.78
2018-07-11T05:15:18.631Z,18.64
2018-07-11T05:17:46.936Z,24.28
2018-07-11T05:20:15.258Z,22.32
2018-07-11T05:22:43.555Z,22.72
2018-07-11T05:25:11.877Z,19.86
2018-07-11T05:27:40.195Z,18.16
2018-07-11T05:30:08.522Z,21.98
2018-07-11T05:32:36.826Z,17.74
2018-07-11T05:35:05.137Z,18.58
2018-07-11T05:37:33.442Z,18.84
2018-07-11T05:40:01.763Z,22.94
2018-07-11T05:42:30.104Z,38.90
2018-07-11T05:44:58.400Z,39.62
2018-07-11T05:47:26.706Z,37.86
2018-07-11T05:49:55.019Z,42.26
2018-07-11T05:52:23.323Z,43.84
2018-07-11T05:54:51.646Z,44.84
2018-07-11T05:57:19.938Z,45.16
2018-07-11T05:59:48.266Z,42.34
2018-07-11T06:02:16.570Z,43.20
2018-07-11T06:04:44.896Z,44.88
2018-07-11T06:07:13.194Z,38.84
2018-07-11T06:09:41.514Z,38.70
2018-07-11T06:12:09.814Z,32.34
2018-07-11T06:14:38.148Z,36.34
2018-07-11T06:17:06.448Z,37.24
2018-07-11T06:19:34.761Z,34.16
2018-07-11T06:22:03.088Z,31.62
2018-07-11T06:24:31.415Z,35.86
2018-07-11T06:26:59.714Z,34.38
2018-07-11T06:29:28.034Z,33.90
2018-07-11T06:31:56.332Z,29.78
2018-07-11T06:34:24.642Z,31.54
2018-07-11T06:36:52.942Z,33.28
2018-07-11T06:39:21.306Z,37.56
2018-07-11T06:41:49.583Z,36.92
2018-07-11T06:44:17.906Z,34.20
2018-07-11T06:46:46.209Z,36.28
2018-07-11T06:49:13.734Z,33.48
2018-07-11T06:51:42.060Z,34.12
2018-07-11T06:54:09.586Z,33.64
2018-07-11T06:56:37.897Z,31.86
2018-07-11T06:59:06.193Z,29.22
2018-07-11T07:01:34.511Z,28.52
2018-07-11T07:04:02.809Z,30.06
2018-07-11T07:06:31.121Z,31.66
2018-07-11T07:08:59.418Z,25.00
2018-07-11T07:11:27.745Z,31.84
2018-07-11T07:13:56.051Z,31.42
2018-07-11T07:16:24.401Z,30.14
2018-07-11T07:18:52.691Z,33.08
2018-07-11T07:21:21.001Z,32.98
2018-07-11T07:23:49.294Z,31.92
2018-07-11T07:26:17.605Z,36.46
2018-07-11T07:28:45.902Z,34.10
2018-07-11T07:31:14.226Z,47.36
2018-07-11T07:33:42.531Z,38.84
2018-07-11T07:36:10.868Z,36.00
2018-07-11T07:38:39.159Z,37.46
2018-07-11T07:41:07.474Z,34.78
2018-07-11T07:43:35.769Z,36.18
2018-07-11T07:46:04.086Z,38.92
2018-07-11T07:48:32.387Z,35.42
2018-07-11T07:51:00.697Z,37.50
2018-07-11T07:53:28.994Z,28.28
2018-07-11T07:55:57.319Z,30.92
2018-07-11T07:58:25.627Z,30.98
2018-07-11T08:00:53.947Z,31.84
2018-07-11T08:03:22.246Z,28.06
2018-07-11T08:05:50.565Z,30.40
2018-07-11T08:08:18.864Z,31.26
2018-07-11T08:10:47.178Z,25.84
2018-07-11T08:13:15.471Z,31.50
2018-07-11T08:15:43.792Z,21.86
2018-07-11T08:18:12.082Z,19.74
2018-07-11T08:20:40.398Z,20.02
2018-07-11T08:23:20.454Z,19.06
2018-07-11T08:26:11.567Z,19.20
2018-07-11T08:28:39.862Z,19.66
2018-07-11T08:31:08.179Z,19.46
2018-07-11T08:33:36.478Z,18.78
2018-07-11T08:36:04.795Z,18.94
2018-07-11T08:38:33.091Z,22.32
2018-07-11T08:41:01.410Z,14.90
2018-07-11T08:43:29.702Z,18.84
2018-07-11T08:45:58.020Z,20.12
2018-07-11T08:48:26.311Z,17.64
2018-07-11T08:50:54.631Z,19.76
2018-07-11T08:53:22.923Z,18.22
2018-07-11T08:55:50.476Z,13.46
2018-07-11T08:58:18.766Z,19.24
2018-07-11T09:00:47.082Z,17.22
2018-07-11T09:03:15.378Z,14.68
2018-07-11T09:05:43.705Z,15.04
2018-07-11T09:08:12.002Z,16.56
2018-07-11T09:10:40.400Z,14.20
2018-07-11T09:13:08.634Z,14.32
2018-07-11T09:15:36.922Z,16.02
2018-07-11T09:18:05.234Z,15.18
2018-07-11T09:20:33.531Z,12.40
2018-07-11T09:23:01.843Z,12.70
2018-07-11T09:25:30.136Z,13.40
2018-07-11T09:27:58.448Z,15.36
2018-07-11T09:30:26.779Z,13.36
2018-07-11T09:32:55.082Z,12.44
2018-07-11T09:35:23.391Z,13.94
2018-07-11T09:37:51.706Z,14.80
2018-07-11T09:40:20.010Z,11.54
2018-07-11T09:42:48.322Z,12.38
2018-07-11T09:45:16.630Z,11.46
2018-07-11T09:47:44.948Z,13.32
2018-07-11T09:50:13.242Z,13.64
2018-07-11T09:52:41.556Z,13.16
2018-07-11T09:55:09.849Z,12.30
2018-07-11T09:57:38.193Z,12.78
2018-07-11T10:00:06.486Z,13.60
2018-07-11T10:02:34.805Z,13.00
2018-07-11T10:05:03.132Z,13.04
2018-07-11T10:07:31.820Z,12.26
2018-07-11T10:10:00.119Z,12.78
2018-07-11T10:12:28.451Z,12.06
2018-07-11T10:14:56.754Z,14.54
2018-07-11T10:17:25.077Z,13.90
2018-07-11T10:19:53.375Z,13.90
2018-07-11T10:22:21.694Z,13.70
2018-07-11T10:24:49.988Z,14.30
2018-07-11T10:27:18.305Z,14.40
2018-07-11T10:29:46.610Z,14.06
2018-07-11T10:32:14.934Z,13.00
2018-07-11T10:34:43.226Z,11.90
2018-07-11T10:37:11.542Z,11.58
2018-07-11T10:39:39.838Z,17.26
2018-07-11T10:42:08.155Z,13.12
2018-07-11T10:44:36.458Z,15.02
2018-07-11T10:47:04.775Z,13.20
2018-07-11T10:49:33.073Z,13.00
2018-07-11T10:52:01.387Z,13.70
2018-07-11T10:54:29.695Z,12.92
2018-07-11T10:56:58.083Z,13.08
2018-07-11T10:59:26.341Z,12.56
2018-07-11T11:01:54.661Z,13.10
2018-07-11T11:04:22.965Z,12.70
2018-07-11T11:06:51.287Z,13.20
2018-07-11T11:09:19.577Z,15.30
2018-07-11T11:11:47.907Z,14.34
2018-07-11T11:14:16.207Z,13.38
2018-07-11T11:16:44.504Z,14.80
2018-07-11T11:19:12.819Z,14.16
2018-07-11T11:21:41.115Z,13.34
2018-07-11T11:24:08.670Z,14.08
2018-07-11T11:26:36.972Z,13.48
2018-07-11T11:29:05.298Z,14.76
2018-07-11T11:31:33.599Z,12.96
2018-07-11T11:34:01.920Z,12.40
2018-07-11T11:36:30.209Z,12.70
2018-07-11T11:38:58.521Z,13.88
2018-07-11T11:41:26.830Z,13.36
2018-07-11T11:43:55.156Z,12.46
2018-07-11T11:46:23.449Z,15.26
2018-07-11T11:48:51.762Z,12.28
2018-07-11T11:51:20.055Z,11.62
2018-07-11T11:53:48.370Z,11.30
2018-07-11T11:56:16.662Z,10.38
2018-07-11T11:58:44.981Z,11.12
2018-07-11T12:01:13.274Z,11.82
2018-07-11T12:03:41.588Z,10.12
2018-07-11T12:06:09.886Z,11.06
2018-07-11T12:08:38.206Z,10.36
2018-07-11T12:11:06.498Z,12.78
2018-07-11T12:13:34.817Z,9.32
2018-07-11T12:16:03.115Z,8.52
2018-07-11T12:18:31.429Z,9.00
2018-07-11T12:20:59.721Z,8.00
2018-07-11T12:23:28.026Z,8.38
2018-07-11T12:25:56.323Z,8.74
2018-07-11T12:28:24.633Z,9.02
2018-07-11T12:30:52.923Z,8.14
2018-07-11T12:33:21.241Z,8.48
2018-07-11T12:35:49.554Z,8.24
2018-07-11T12:38:17.126Z,8.04
2018-07-11T12:40:45.414Z,7.00
2018-07-11T12:43:13.733Z,7.64
2018-07-11T12:45:42.023Z,8.50
2018-07-11T12:48:09.581Z,10.50
2018-07-11T12:50:37.869Z,7.04
2018-07-11T12:53:06.181Z,6.50
2018-07-11T12:55:34.665Z,6.40
2018-07-11T12:58:02.959Z,6.62
2018-07-11T13:00:31.270Z,6.24
2018-07-11T13:02:59.566Z,5.78
2018-07-11T13:05:27.887Z,6.32
2018-07-11T13:07:56.175Z,6.48
2018-07-11T13:10:24.487Z,7.68
2018-07-11T13:12:52.790Z,6.74
2018-07-11T13:15:21.107Z,6.50
2018-07-11T13:17:49.402Z,5.84
2018-07-11T13:20:17.716Z,7.94
2018-07-11T13:22:46.015Z,7.16
2018-07-11T13:25:14.396Z,8.30
2018-07-11T13:27:42.692Z,5.62
2018-07-11T13:30:10.998Z,7.12
2018-07-11T13:32:39.295Z,6.92
2018-07-11T13:35:07.610Z,5.48
2018-07-11T13:37:35.907Z,7.08
2018-07-11T13:40:04.226Z,4.94
2018-07-11T13:42:32.566Z,6.58
2018-07-11T13:45:00.884Z,7.42
2018-07-11T13:47:29.174Z,8.76
2018-07-11T13:49:57.490Z,7.02
2018-07-11T13:52:25.782Z,6.10
2018-07-11T13:54:54.097Z,6.32
2018-07-11T13:57:21.618Z,4.74
2018-07-11T13:59:49.930Z,4.38
2018-07-11T14:02:18.214Z,4.98
2018-07-11T14:04:46.526Z,4.38
2018-07-11T14:07:14.828Z,5.02
2018-07-11T14:09:43.141Z,5.14
2018-07-11T14:12:11.431Z,4.36
2018-07-11T14:14:39.752Z,4.56
2018-07-11T14:17:08.043Z,6.44
2018-07-11T14:19:36.358Z,4.54
2018-07-11T14:22:04.652Z,5.00
2018-07-11T14:24:32.190Z,7.52
2018-07-11T14:27:00.490Z,7.16
2018-07-11T14:29:28.809Z,5.22
2018-07-11T14:31:57.102Z,7.18
2018-07-11T14:34:25.418Z,5.24
2018-07-11T14:36:53.715Z,4.62
2018-07-11T14:39:22.026Z,5.26
2018-07-11T14:41:50.318Z,5.88
2018-07-11T14:44:18.650Z,5.90
2018-07-11T14:46:46.946Z,7.58
2018-07-11T14:49:15.256Z,5.12
2018-07-11T14:51:43.546Z,5.48
2018-07-11T14:54:11.883Z,7.94
2018-07-11T14:56:40.199Z,8.30
2018-07-11T14:59:08.490Z,6.40
2018-07-11T15:01:36.840Z,4.96
2018-07-11T15:04:05.142Z,6.44
2018-07-11T15:06:33.466Z,5.72
2018-07-11T15:09:01.941Z,6.82
2018-07-11T15:11:30.088Z,7.38
2018-07-11T15:13:58.380Z,6.42
2018-07-11T15:16:25.927Z,5.10
2018-07-11T15:18:54.221Z,5.36
2018-07-11T15:21:22.537Z,7.28
2018-07-11T15:23:50.831Z,5.74
2018-07-11T15:26:19.139Z,7.36
2018-07-11T15:28:47.425Z,5.64
2018-07-11T15:31:15.741Z,4.76
2018-07-11T15:33:44.040Z,5.44
2018-07-11T15:36:12.369Z,5.64
2018-07-11T15:38:39.899Z,10.46
2018-07-11T15:41:08.211Z,6.70
2018-07-11T15:43:36.507Z,8.08
2018-07-11T15:46:04.832Z,5.76
2018-07-11T15:48:32.358Z,10.40
2018-07-11T15:51:00.684Z,4.70
2018-07-11T15:53:28.999Z,7.34
2018-07-11T15:55:57.306Z,7.44
2018-07-11T15:58:25.603Z,9.84
2018-07-11T16:00:53.907Z,7.32
2018-07-11T16:03:22.198Z,4.94
2018-07-11T16:05:50.596Z,7.32
2018-07-11T16:08:18.819Z,7.52
2018-07-11T16:10:47.131Z,10.46
2018-07-11T16:13:15.427Z,6.34
2018-07-11T16:15:43.755Z,6.66
2018-07-11T16:18:12.066Z,7.70
2018-07-11T16:20:40.381Z,5.04
2018-07-11T16:23:08.684Z,9.64
2018-07-11T16:25:36.997Z,7.86
2018-07-11T16:28:05.294Z,7.28
2018-07-11T16:30:33.611Z,4.90
2018-07-11T16:33:01.908Z,6.34
2018-07-11T16:35:30.248Z,5.82
2018-07-11T16:37:58.546Z,5.18
2018-07-11T16:40:26.863Z,6.80
2018-07-11T16:42:55.161Z,8.22
2018-07-11T16:45:23.466Z,6.26
2018-07-11T16:47:51.752Z,5.38
2018-07-11T16:50:20.037Z,6.08
2018-07-11T16:52:48.494Z,5.88
2018-07-11T16:55:17.023Z,7.10
2018-07-11T16:57:45.331Z,6.86
2018-07-11T17:00:13.626Z,6.02
2018-07-11T17:02:41.948Z,4.20
2018-07-11T17:05:10.246Z,11.78
2018-07-11T17:07:38.558Z,6.32
2018-07-11T17:10:06.853Z,6.10
2018-07-11T17:12:35.166Z,5.64
2018-07-11T17:15:03.454Z,4.42
2018-07-11T17:17:31.770Z,5.48
2018-07-11T17:20:00.060Z,6.04
2018-07-11T17:22:28.378Z,4.46
2018-07-11T17:24:56.683Z,5.18
2018-07-11T17:27:25.005Z,5.18
2018-07-11T17:29:53.299Z,8.18
2018-07-11T17:32:21.606Z,6.34
2018-07-11T17:34:49.893Z,6.42
2018-07-11T17:37:18.245Z,4.40
2018-07-11T17:39:46.523Z,7.46
2018-07-11T17:42:14.842Z,7.10
2018-07-11T17:44:43.130Z,9.36
2018-07-11T17:47:11.450Z,9.86
2018-07-11T17:49:39.743Z,5.80
2018-07-11T17:52:08.058Z,6.40
2018-07-11T17:54:36.349Z,6.60
2018-07-11T17:57:04.662Z,8.04
2018-07-11T17:59:32.961Z,5.96
2018-07-11T18:02:01.291Z,7.24
2018-07-11T18:04:28.818Z,7.12
2018-07-11T18:06:57.126Z,6.80
2018-07-11T18:09:25.415Z,6.70
2018-07-11T18:11:53.738Z,8.46
2018-07-11T18:14:22.058Z,11.06
2018-07-11T18:16:50.366Z,6.62
2018-07-11T18:19:18.655Z,7.32
2018-07-11T18:21:46.971Z,6.20
2018-07-11T18:24:15.263Z,8.70
2018-07-11T18:26:43.570Z,7.44
2018-07-11T18:29:11.859Z,7.84
2018-07-11T18:31:40.170Z,6.04
2018-07-11T18:34:08.453Z,9.68
2018-07-11T18:36:36.767Z,9.42
2018-07-11T18:39:05.062Z,7.44
2018-07-11T18:41:33.384Z,7.80
2018-07-11T18:44:01.686Z,9.00
2018-07-11T18:46:30.013Z,8.10
2018-07-11T18:48:58.308Z,11.40
2018-07-11T18:51:26.606Z,7.26
2018-07-11T18:53:54.922Z,6.98
2018-07-11T18:56:23.225Z,8.28
2018-07-11T18:58:51.551Z,8.20
2018-07-11T19:01:19.840Z,6.38
2018-07-11T19:03:48.149Z,9.32
2018-07-11T19:06:16.713Z,7.66
2018-07-11T19:08:44.770Z,8.96
2018-07-11T19:11:13.059Z,9.42
2018-07-11T19:13:41.371Z,8.38
2018-07-11T19:16:09.672Z,7.96
2018-07-11T19:18:37.991Z,10.30
2018-07-11T19:21:06.275Z,7.70
2018-07-11T19:23:34.602Z,20.84
2018-07-11T19:26:02.136Z,29.88
2018-07-11T19:28:30.454Z,36.86
2018-07-11T19:30:58.792Z,9.64
2018-07-11T19:33:27.078Z,9.58
2018-07-11T19:35:55.375Z,11.20
2018-07-11T19:38:23.694Z,9.54
2018-07-11T19:40:51.998Z,35.66
2018-07-11T19:43:20.314Z,11.32
2018-07-11T19:45:48.616Z,17.10
2018-07-11T19:48:16.943Z,13.32
2018-07-11T19:50:45.234Z,11.64
2018-07-11T19:53:13.550Z,11.22
2018-07-11T19:55:41.851Z,14.68
2018-07-11T19:58:10.166Z,13.26
2018-07-11T20:00:38.458Z,35.82
2018-07-11T20:03:06.780Z,16.80
2018-07-11T20:05:35.080Z,13.62
2018-07-11T20:08:03.401Z,14.00
2018-07-11T20:10:31.695Z,17.88
2018-07-11T20:13:00.017Z,10.26
2018-07-11T20:15:28.338Z,13.94
2018-07-11T20:17:56.655Z,14.76
2018-07-11T20:20:24.951Z,28.40
2018-07-11T20:22:53.298Z,29.62
2018-07-11T20:25:20.813Z,20.72
2018-07-11T20:27:49.134Z,18.72
2018-07-11T20:30:17.430Z,13.02
2018-07-11T20:32:45.747Z,10.82
2018-07-11T20:35:14.047Z,30.84
2018-07-11T20:37:42.366Z,17.58
2018-07-11T20:40:10.663Z,17.88
2018-07-11T20:42:38.983Z,11.66
2018-07-11T20:45:07.279Z,12.28
2018-07-11T20:47:34.834Z,14.98
2018-07-11T20:50:03.134Z,13.06
2018-07-11T20:52:31.426Z,10.56
2018-07-11T20:54:59.741Z,13.68
2018-07-11T20:57:28.036Z,11.56
2018-07-11T21:00:08.326Z,10.60
2018-07-11T21:02:48.535Z,9.00
2018-07-11T21:05:16.059Z,11.12
2018-07-11T21:07:44.399Z,13.50
2018-07-11T21:10:12.691Z,11.66
2018-07-11T21:12:40.987Z,10.16
2018-07-11T21:15:08.530Z,10.28
2018-07-11T21:17:36.056Z,15.84
2018-07-11T21:20:04.374Z,13.12
2018-07-11T21:22:32.661Z,10.84
2018-07-11T21:25:00.969Z,17.08
2018-07-11T21:27:29.271Z,14.24
2018-07-11T21:29:57.586Z,17.04
2018-07-11T21:32:25.878Z,10.74
2018-07-11T21:34:54.189Z,12.94
2018-07-11T21:37:22.483Z,12.66
2018-07-11T21:39:50.797Z,12.36
2018-07-11T21:42:19.102Z,11.52
2018-07-11T21:44:47.423Z,14.90
2018-07-11T21:47:15.718Z,11.10
2018-07-11T21:49:44.029Z,11.58
2018-07-11T21:52:12.322Z,13.06
2018-07-11T21:54:40.638Z,14.68
2018-07-11T21:57:08.939Z,15.90
2018-07-11T21:59:37.246Z,11.00
2018-07-11T22:02:05.548Z,12.26
2018-07-11T22:04:33.867Z,15.98
2018-07-11T22:07:02.166Z,13.22
2018-07-11T22:09:30.486Z,11.48
2018-07-11T22:11:58.783Z,11.18
2018-07-11T22:14:27.126Z,13.80
2018-07-11T22:16:55.418Z,13.44
2018-07-11T22:19:23.743Z,13.94
2018-07-11T22:21:51.545Z,13.46
2018-07-11T22:24:19.374Z,20.86
2018-07-11T22:26:47.178Z,13.78
2018-07-11T22:29:15.009Z,23.56
2018-07-11T22:31:42.823Z,20.32
2018-07-11T22:34:10.650Z,21.38
2018-07-11T22:36:38.458Z,15.98
2018-07-11T22:39:06.278Z,16.56
2018-07-11T22:41:34.084Z,17.72
2018-07-11T22:44:01.911Z,23.00
2018-07-11T22:46:29.732Z,17.68
2018-07-11T22:48:57.558Z,18.20
2018-07-11T22:51:25.362Z,21.58
2018-07-11T22:53:53.195Z,24.54
2018-07-11T22:56:20.993Z,18.30
2018-07-11T22:58:48.795Z,18.18
2018-07-11T23:01:16.617Z,29.54
2018-07-11T23:03:43.650Z,26.82
2018-07-11T23:06:10.710Z,15.32
2018-07-11T23:08:38.515Z,26.94
2018-07-11T23:11:06.343Z,23.16
2018-07-11T23:13:34.145Z,16.34
2018-07-11T23:16:01.973Z,12.66
2018-07-11T23:18:29.778Z,15.46
2018-07-11T23:20:57.605Z,15.70
2018-07-11T23:23:25.410Z,15.82
2018-07-11T23:25:53.230Z,11.56
2018-07-11T23:28:21.042Z,14.78
2018-07-11T23:30:48.875Z,16.18
2018-07-11T23:33:16.678Z,14.98
2018-07-11T23:35:44.499Z,12.94
2018-07-11T23:38:12.307Z,14.08
2018-07-11T23:40:40.130Z,22.06
2018-07-11T23:43:07.930Z,14.96
2018-07-11T23:45:35.755Z,15.28
2018-07-11T23:48:03.561Z,20.32
2018-07-11T23:50:31.387Z,21.46
2018-07-11T23:52:59.185Z,18.64
2018-07-11T23:55:27.015Z,20.94
2018-07-11T23:57:54.820Z,19.24
